| time (UTC) | temp C | wind direction | speed KPH | gust KPH | rain 1hr cm | rain 24hr cm | rain mn cm | humidity % | barometer mb |
| 20260906214617 | 30 | 0 | 0.0 | 9.7 | 0.00 | 0.00 | 0.00 | 23 | 1020.8 |
| 20260906213110 | 30 | 131 | 3.2 | 12.9 | 0.00 | 0.00 | 0.00 | 25 | 1021.0 |
| 20260906211600 | 29 | 97 | 8.0 | 14.5 | 0.00 | 0.00 | 0.00 | 27 | 1021.3 |
| 20260906210100 | 29 | 107 | 6.4 | 16.1 | 0.00 | 0.00 | 0.00 | 28 | 1021.4 |
| 20260906204616 | 29 | 103 | 6.4 | 16.1 | 0.00 | 0.00 | 0.00 | 28 | 1021.8 |
| 20260906203101 | 29 | 98 | 6.4 | 14.5 | 0.00 | 0.00 | 0.00 | 27 | 1021.8 |
| 20260906201604 | 29 | 148 | 6.4 | 12.9 | 0.00 | 0.00 | 0.00 | 27 | 1022.0 |
| 20260906194605 | 29 | 170 | 3.2 | 14.5 | 0.00 | 0.00 | 0.00 | 26 | 1022.3 |
| 20260906193104 | 28 | 113 | 4.8 | 16.1 | 0.00 | 0.00 | 0.00 | 28 | 1022.4 |
| 20260906191612 | 29 | 87 | 6.4 | 16.1 | 0.00 | 0.00 | 0.00 | 28 | 1022.7 |
| 20260906190105 | 29 | 87 | 3.2 | 17.7 | 0.00 | 0.00 | 0.00 | 28 | 1023.1 |
| 20260906184606 | 28 | 95 | 9.7 | 17.7 | 0.00 | 0.00 | 0.00 | 28 | 1023.3 |
| 20260906183103 | 28 | 106 | 1.6 | 12.9 | 0.00 | 0.00 | 0.00 | 28 | 1023.5 |
| 20260906181602 | 28 | 132 | 0.0 | 11.3 | 0.00 | 0.00 | 0.00 | 28 | 1023.8 |
| 20260906180116 | 28 | 112 | 4.8 | 12.9 | 0.00 | 0.00 | 0.00 | 29 | 1024.1 |
| 20260906174601 | 27 | 63 | 0.0 | 16.1 | 0.00 | 0.00 | 0.00 | 30 | 1024.2 |
| 20260906173106 | 27 | 82 | 1.6 | 8.0 | 0.00 | 0.00 | 0.00 | 29 | 1024.3 |
| 20260906171606 | 27 | 114 | 0.0 | 12.9 | 0.00 | 0.00 | 0.00 | 29 | 1024.5 |
| 20260906170103 | 27 | 0 | 0.0 | 8.0 | 0.00 | 0.00 | 0.00 | 29 | 1024.5 |
| 20260906164602 | 26 | 74 | 0.0 | 9.7 | 0.00 | 0.00 | 0.00 | 31 | 1024.6 |
| 20260906163123 | 26 | 122 | 0.0 | 11.3 | 0.00 | 0.00 | 0.00 | 29 | 1024.6 |
| 20260906161612 | 26 | 92 | 3.2 | 17.7 | 0.00 | 0.00 | 0.00 | 30 | 1024.5 |
| 20260906160113 | 26 | 84 | 3.2 | 16.1 | 0.00 | 0.00 | 0.00 | 30 | 1024.6 |
| 20260906154607 | 26 | 79 | 6.4 | 14.5 | 0.00 | 0.00 | 0.00 | 29 | 1024.4 |
| 20260906153109 | 27 | 0 | 0.0 | 1.6 | 0.00 | 0.00 | 0.00 | 27 | 1024.3 |
| 20260906151609 | 26 | 44 | 0.0 | 4.8 | 0.00 | 0.00 | 0.00 | 30 | 1024.3 |
| 20260906150108 | 25 | 0 | 0.0 | 8.0 | 0.00 | 0.00 | 0.00 | 30 | 1024.2 |
| 20260906144601 | 24 | 0 | 1.6 | 6.4 | 0.00 | 0.00 | 0.00 | 31 | 1024.2 |
| 20260906143106 | 23 | 0 | 0.0 | 3.2 | 0.00 | 0.00 | 0.00 | 35 | 1024.3 |
| 20260906141602 | 23 | 0 | 0.0 | 1.6 | 0.00 | 0.00 | 0.00 | 38 | 1024.3 |
| 20260906140108 | 22 | 0 | 0.0 | 0.0 | 0.00 | 0.00 | 0.00 | 37 | 1024.2 |
| 20260906134602 | 20 | 0 | 0.0 | 3.2 | 0.00 | 0.00 | 0.00 | 40 | 1024.0 |
| 20260906133129 | 17 | 0 | 0.0 | 1.6 | 0.00 | 0.00 | 0.00 | 46 | 1024.0 |
| 20260906131618 | 17 | 0 | 0.0 | 3.2 | 0.00 | 0.00 | 0.00 | 46 | 1023.9 |
| 20260906130113 | 15 | 0 | 0.0 | 0.0 | 0.00 | 0.00 | 0.00 | 51 | 1023.5 |
| 20260906124603 | 15 | 0 | 0.0 | 1.6 | 0.00 | 0.00 | 0.00 | 50 | 1023.4 |
| 20260906123105 | 16 | 0 | 0.0 | 0.0 | 0.00 | 0.00 | 0.00 | 47 | 1023.6 |
| 20260906121601 | 17 | 0 | 0.0 | 3.2 | 0.00 | 0.00 | 0.00 | 44 | 1023.5 |
| 20260906120104 | 18 | 0 | 0.0 | 3.2 | 0.00 | 0.00 | 0.00 | 41 | 1023.5 |
| 20260906114604 | 19 | 243 | 0.0 | 6.4 | 0.00 | 0.00 | 0.00 | 39 | 1023.4 |
| 20260906113102 | 19 | 0 | 1.6 | 12.9 | 0.00 | 0.00 | 0.00 | 39 | 1023.4 |
| 20260906111600 | 18 | 243 | 0.0 | 6.4 | 0.00 | 0.00 | 0.00 | 39 | 1023.4 |
| 20260906110100 | 18 | 0 | 0.0 | 4.8 | 0.00 | 0.00 | 0.00 | 41 | 1023.2 |
| 20260906104611 | 17 | 0 | 0.0 | 1.6 | 0.00 | 0.00 | 0.00 | 43 | 1023.2 |
| 20260906103102 | 16 | 0 | 0.0 | 3.2 | 0.00 | 0.00 | 0.00 | 45 | 1023.2 |
| 20260906101608 | 17 | 0 | 0.0 | 1.6 | 0.00 | 0.00 | 0.00 | 42 | 1023.1 |
| 20260906100116 | 17 | 248 | 0.0 | 4.8 | 0.00 | 0.00 | 0.00 | 45 | 1023.1 |
| 20260906094621 | 18 | 0 | 0.0 | 0.0 | 0.00 | 0.00 | 0.00 | 42 | 1023.1 |
| 20260906093104 | 19 | 0 | 0.0 | 4.8 | 0.00 | 0.00 | 0.00 | 38 | 1023.1 |
| 20260906091601 | 20 | 0 | 0.0 | 8.0 | 0.00 | 0.00 | 0.00 | 36 | 1023.1 |
| 20260906090122 | 17 | 0 | 0.0 | 4.8 | 0.00 | 0.00 | 0.00 | 44 | 1023.2 |
| 20260906084605 | 15 | 0 | 0.0 | 1.6 | 0.00 | 0.00 | 0.00 | 54 | 1023.1 |
| 20260906083101 | 14 | 0 | 0.0 | 1.6 | 0.00 | 0.00 | 0.00 | 57 | 1023.1 |
| 20260906081601 | 15 | 0 | 0.0 | 1.6 | 0.00 | 0.00 | 0.00 | 57 | 1023.0 |
| 20260906074605 | 15 | 0 | 0.0 | 0.0 | 0.00 | 0.00 | 0.00 | 58 | 1023.2 |
| 20260906073104 | 16 | 0 | 0.0 | 0.0 | 0.00 | 0.00 | 0.00 | 55 | 1023.0 |
| 20260906071602 | 16 | 0 | 0.0 | 0.0 | 0.00 | 0.00 | 0.00 | 55 | 1023.0 |
| 20260906070119 | 16 | 0 | 0.0 | 0.0 | 0.00 | 0.00 | 0.00 | 56 | 1022.9 |
| 20260906064607 | 16 | 0 | 0.0 | 0.0 | 0.00 | 0.00 | 0.00 | 54 | 1023.1 |
| 20260906063104 | 16 | 0 | 0.0 | 0.0 | 0.00 | 0.00 | 0.00 | 55 | 1023.0 |
| 20260906061607 | 17 | 0 | 0.0 | 1.6 | 0.00 | 0.00 | 0.00 | 52 | 1023.2 |
| 20260906060107 | 17 | 0 | 0.0 | 1.6 | 0.00 | 0.00 | 0.00 | 51 | 1023.1 |
| 20260906054558 | 16 | 0 | 0.0 | 1.6 | 0.00 | 0.00 | 0.00 | 52 | 1023.2 |
| 20260906053103 | 17 | 0 | 0.0 | 0.0 | 0.00 | 0.00 | 0.00 | 52 | 1023.3 |
| 20260906051604 | 17 | 0 | 0.0 | 4.8 | 0.00 | 0.00 | 0.00 | 48 | 1023.3 |
| 20260906050103 | 18 | 0 | 0.0 | 1.6 | 0.00 | 0.00 | 0.00 | 47 | 1023.2 |
| 20260906044600 | 18 | 0 | 0.0 | 1.6 | 0.00 | 0.00 | 0.00 | 46 | 1023.4 |
| 20260906043101 | 18 | 0 | 0.0 | 0.0 | 0.00 | 0.00 | 0.00 | 44 | 1023.5 |
| 20260906041601 | 18 | 0 | 0.0 | 3.2 | 0.00 | 0.00 | 0.00 | 45 | 1023.4 |
| 20260906034604 | 18 | 0 | 0.0 | 1.6 | 0.00 | 0.00 | 0.00 | 47 | 1023.5 |
| 20260906033106 | 18 | 0 | 0.0 | 1.6 | 0.00 | 0.00 | 0.00 | 48 | 1023.4 |
| 20260906031601 | 18 | 0 | 0.0 | 0.0 | 0.00 | 0.00 | 0.00 | 49 | 1023.2 |
| 20260906024602 | 18 | 0 | 0.0 | 1.6 | 0.00 | 0.00 | 0.00 | 54 | 1023.0 |
| 20260906023101 | 20 | 0 | 0.0 | 0.0 | 0.00 | 0.00 | 0.00 | 49 | 1022.8 |
| 20260906021607 | 20 | 0 | 0.0 | 0.0 | 0.00 | 0.00 | 0.00 | 46 | 1022.7 |
| 20260906020104 | 21 | 0 | 0.0 | 1.6 | 0.00 | 0.00 | 0.00 | 40 | 1022.4 |
| 20260906014611 | 21 | 153 | 0.0 | 0.0 | 0.00 | 0.00 | 0.00 | 43 | 1022.2 |
| 20260906013103 | 22 | 0 | 0.0 | 0.0 | 0.00 | 0.00 | 0.00 | 45 | 1022.0 |
| 20260906011618 | 23 | 0 | 0.0 | 0.0 | 0.00 | 0.00 | 0.00 | 40 | 1022.0 |
| 20260906010105 | 26 | 0 | 0.0 | 0.0 | 0.00 | 0.00 | 0.00 | 33 | 1021.9 |
| 20260906004601 | 27 | 70 | 0.0 | 6.4 | 0.00 | 0.00 | 0.00 | 30 | 1021.8 |
| 20260906003113 | 27 | 170 | 1.6 | 8.0 | 0.00 | 0.00 | 0.00 | 29 | 1021.6 |
| 20260906001605 | 28 | 82 | 0.0 | 4.8 | 0.00 | 0.00 | 0.00 | 27 | 1021.5 |
| 20260906000108 | 29 | 0 | 0.0 | 4.8 | 0.00 | 0.00 | 0.00 | 26 | 1021.5 |
| 20260905234606 | 28 | 0 | 0.0 | 6.4 | 0.00 | 0.00 | 0.00 | 27 | 1021.5 |
| 20260905233130 | 29 | 162 | 0.0 | 4.8 | 0.00 | 0.00 | 0.00 | 27 | 1021.5 |
| 20260905231601 | 28 | 105 | 0.0 | 9.7 | 0.00 | 0.00 | 0.00 | 28 | 1021.5 |
| 20260905230059 | 28 | 86 | 4.8 | 9.7 | 0.00 | 0.00 | 0.00 | 28 | 1021.5 |
| 20260905224620 | 28 | 98 | 0.0 | 4.8 | 0.00 | 0.00 | 0.00 | 28 | 1021.6 |
| 20260905223107 | 28 | 0 | 0.0 | 6.4 | 0.00 | 0.00 | 0.00 | 29 | 1021.6 |
| 20260905221601 | 28 | 120 | 1.6 | 9.7 | 0.00 | 0.00 | 0.00 | 31 | 1021.6 |
| 20260905220106 | 28 | 148 | 6.4 | 14.5 | 0.00 | 0.00 | 0.00 | 31 | 1021.8 |